Flight Track Log - Related Links

Times and Time Zones

All times are in EDT time to prevent confusion due to time zone crossing. See the NKS562 flight status page for this flight to view local times or setup timezone preferences in your user account.

Time Position Orientation Groundspeed Altitude Reporting Facility
EDT Latitude Longitude Course Direction KTS MPH feet Rate Location/Type
Mon 11:28:27 AM 36.0770 -115.1580 270° West 164 189 2,700  Level FlightAware ADS-B
Mon 11:28:57 AM 36.0780 -115.1870 272° West 166 191 3,900 2,000 Climbing FlightAware ADS-B
Mon 11:29:27 AM 36.0790 -115.2180 272° West 199 229 4,700 1,855 Climbing FlightAware ADS-B
Mon 11:29:52 AM 36.0790 -115.2510 270° West 229 264 5,600 2,618 Climbing FlightAware ADS-B
Mon 11:30:22 AM 36.0950 -115.2850 300° West 259 298 7,100 3,067 Climbing FlightAware ADS-B
Mon 11:30:37 AM 36.1100 -115.2910 342° North 258 297 7,900 3,086 Climbing FlightAware ADS-B
Mon 11:30:57 AM 36.1330 -115.2950 352° North 262 302 8,900 3,300 Climbing FlightAware ADS-B
Mon 11:31:17 AM 36.1570 -115.2830 22° Northeast 265 305 10,100 3,600 Climbing FlightAware ADS-B
Mon 11:31:32 AM 36.1700 -115.2650 48° Northeast 265 305 11,000 3,200 Climbing FlightAware ADS-B
Mon 11:31:47 AM 36.1780 -115.2460 62° Northeast 265 305 11,700 1,855 Climbing FlightAware ADS-B
Mon 11:32:27 AM 36.1960 -115.1820 71° East 316 364 12,700 1,350 Climbing FlightAware ADS-B
Mon 11:33:07 AM 36.1970 -115.1060 89° East 357 411 13,500 1,906 Climbing FlightAware ADS-B
Mon 11:33:52 AM 36.1980 -115.0080 89° East 380 437 15,400 2,612 Climbing FlightAware ADS-B
Mon 11:34:32 AM 36.1990 -114.9200 89° East 388 447 17,200 2,400 Climbing FlightAware ADS-B
Mon 11:35:17 AM 36.2000 -114.8220 89° East 402 463 18,800 2,259 Climbing FlightAware ADS-B
Mon 11:35:57 AM 36.2000 -114.7290 90° East 408 470 20,400 2,250 Climbing FlightAware ADS-B
Mon 11:36:37 AM 36.1990 -114.6350 91° East 415 478 21,800 2,118 Climbing FlightAware ADS-B
Mon 11:37:22 AM 36.1970 -114.5240 91° East 423 487 23,400 2,118 Climbing FlightAware ADS-B
Mon 11:38:02 AM 36.1960 -114.4260 91° East 426 490 24,800 1,906 Climbing FlightAware ADS-B
Mon 11:38:47 AM 36.1950 -114.3190 91° East 435 501 26,100 1,680 Climbing FlightAware ADS-B
Mon 11:39:42 AM 36.2010 -114.1820 87° East 446 513 27,600 1,620 Climbing FlightAware ADS-B
Mon 11:40:27 AM 36.2150 -114.0660 81° East 451 519 28,800 1,341 Climbing FlightAware ADS-B
Mon 11:41:07 AM 36.2270 -113.9630 82° East 462 532 29,500 1,059 Climbing FlightAware ADS-B
Mon 11:41:52 AM 36.2410 -113.8460 82° East 473 544 30,300 1,059 Climbing FlightAware ADS-B
Mon 11:42:32 AM 36.2540 -113.7320 82° East 482 555 31,000 1,200 Climbing FlightAware ADS-B
Mon 11:43:12 AM 36.2670 -113.6240 81° East 482 555 31,900 1,341 Climbing FlightAware ADS-B
Mon 11:43:57 AM 36.2810 -113.5030 82° East 484 557 32,900 1,482 Climbing FlightAware ADS-B
Mon 11:44:37 AM 36.2930 -113.3950 82° East 478 550 34,000 1,412 Climbing FlightAware ADS-B
Mon 11:45:22 AM 36.3070 -113.2690 82° East 479 551 34,900 1,341 Climbing FlightAware ADS-B
Mon 11:46:02 AM 36.3320 -113.1710 72° East 475 547 35,900 1,200 Climbing FlightAware ADS-B
Mon 11:46:42 AM 36.3690 -113.0720 65° Northeast 477 549 36,500 776 Climbing FlightAware ADS-B
Mon 11:47:27 AM 36.4130 -112.9550 65° Northeast 482 555 37,000 375 Climbing FlightAware ADS-B
Mon 11:48:02 AM 36.4460 -112.8650 65° Northeast 481 554 37,000  Level FlightAware ADS-B
Mon 11:48:52 AM 36.4920 -112.7410 65° Northeast 486 559 37,000  Level FlightAware ADS-B
Mon 11:49:32 AM 36.5270 -112.6440 66° East 480 552 37,000  Level FlightAware ADS-B
Mon 11:50:07 AM 36.5590 -112.5570 65° Northeast 476 548 37,000 -71 Level FlightAware ADS-B
Mon 11:50:57 AM 36.6050 -112.4300 66° East 472 543 36,900  Descending FlightAware ADS-B
Mon 11:51:37 AM 36.6410 -112.3320 65° Northeast 469 540 37,000  Climbing FlightAware ADS-B
Mon 11:52:22 AM 36.6810 -112.2200 66° East 468 539 36,900  Descending FlightAware ADS-B
Mon 11:53:02 AM 36.7170 -112.1210 66° East 468 539 37,000 71 Climbing FlightAware ADS-B
Mon 11:53:47 AM 36.7560 -112.0130 66° East 467 537 37,000  Level FlightAware ADS-B
Mon 11:54:27 AM 36.7910 -111.9160 66° East 465 535 37,000  Level FlightAware ADS-B
Mon 11:55:07 AM 36.8260 -111.8190 66° East 462 532 37,000 -71 Level FlightAware ADS-B
Mon 11:55:52 AM 36.8660 -111.7080 66° East 465 535 36,900  Descending FlightAware ADS-B
Mon 11:56:32 AM 36.9000 -111.6110 66° East 466 536 37,000 75 Climbing FlightAware ADS-B
Mon 11:57:12 AM 36.9360 -111.5090 66° East 466 536 37,000  Level FlightAware ADS-B
Mon 11:57:57 AM 36.9750 -111.3980 66° East 468 539 37,000 71 Level FlightAware ADS-B
Mon 11:58:37 AM 37.0100 -111.2980 66° East 466 536 37,100  Climbing FlightAware ADS-B
Mon 11:59:22 AM 37.0480 -111.1900 66° East 465 535 37,000 -71 Descending FlightAware ADS-B
Mon 12:00:02 PM 37.0830 -111.0910 66° East 463 533 37,000  Level FlightAware ADS-B
Mon 12:00:47 PM 37.1200 -110.9820 67° East 461 531 37,000  Level FlightAware ADS-B
Mon 12:01:27 PM 37.1550 -110.8830 66° East 459 528 37,000  Level FlightAware ADS-B
Mon 12:02:02 PM 37.1830 -110.8030 66° East 459 528 37,000  Level FlightAware ADS-B
Mon 12:02:42 PM 37.2130 -110.7200 66° East 459 528 37,000  Level FlightAware ADS-B
Mon 12:03:32 PM 37.2490 -110.6170 66° East 459 528 37,000  Level FlightAware ADS-B
Mon 12:04:12 PM 37.2790 -110.5340 66° East 459 528 37,000  Level FlightAware ADS-B
Mon 12:04:52 PM 37.3080 -110.4510 66° East 459 528 37,000  Level FlightAware ADS-B
Mon 12:05:32 PM 37.3370 -110.3680 66° East 459 528 37,000  Level FlightAware ADS-B
Mon 12:06:22 PM 37.3740 -110.2640 66° East 459 528 37,000  Level FlightAware ADS-B
Mon 12:07:02 PM 37.4030 -110.1810 66° East 459 528 37,000  Level FlightAware ADS-B
Mon 12:07:42 PM 37.4690 -109.9630 69° East 465 535 37,000  Level FlightAware ADS-B
Mon 12:08:37 PM 37.5050 -109.8560 67° East 464 534 37,000  Level FlightAware ADS-B
Mon 12:09:22 PM 37.5500 -109.7220 67° East 464 534 37,000  Level FlightAware ADS-B
Mon 12:10:02 PM 37.5770 -109.6380 68° East 466 536 37,000  Level FlightAware ADS-B
Mon 12:10:47 PM 37.6220 -109.5020 67° East 468 539 37,000  Level FlightAware ADS-B
Mon 12:11:22 PM 37.6470 -109.4260 67° East 470 541 37,000  Level FlightAware ADS-B
Mon 12:12:07 PM 37.6850 -109.3100 67° East 473 544 37,000  Level FlightAware ADS-B
Mon 12:12:52 PM 37.7230 -109.1950 67° East 474 545 37,000  Level FlightAware ADS-B
Mon 12:13:32 PM 37.7560 -109.0930 68° East 473 544 37,000  Level FlightAware ADS-B
Mon 12:14:57 PM 37.7880 -108.8570 80° East 468 539 37,000  Level FlightAware ADS-B
Mon 12:15:37 PM 37.7820 -108.7580 94° East 468 539 37,000  Level FlightAware ADS-B
Mon 12:16:22 PM 37.7780 -108.6560 93° East 467 537 37,000  Level FlightAware ADS-B
Mon 12:16:27 PM 37.7840 -108.6070 81° East 473 544 37,000  Level FlightAware ADS-B
Mon 12:17:07 PM 37.8180 -108.5210 63° Northeast 474 545 37,000  Level FlightAware ADS-B
Mon 12:17:42 PM 37.8620 -108.4440 54° Northeast 471 542 37,000  Level FlightAware ADS-B
Mon 12:18:27 PM 37.8800 -108.4110 55° Northeast 467 537 37,000 -67 Level FlightAware ADS-B
Mon 12:19:12 PM 37.9770 -108.2390 54° Northeast 467 537 36,900  Descending FlightAware ADS-B
Mon 12:20:22 PM 38.0650 -108.0830 54° Northeast 467 537 37,000 57 Climbing FlightAware ADS-B
Mon 12:20:57 PM 38.1120 -107.9980 55° Northeast 469 540 37,000  Level FlightAware ADS-B
Mon 12:22:27 PM 38.2200 -107.8040 55° Northeast 471 542 37,000  Level FlightAware ADS-B
Mon 12:23:22 PM 38.2870 -107.6840 55° Northeast 458 527 37,000 -120 Level FlightAware ADS-B
Mon 12:24:07 PM 38.3460 -107.5780 55° Northeast 460 529 36,800 -660 Descending FlightAware ADS-B
Mon 12:25:02 PM 38.4100 -107.4620 55° Northeast 453 521 35,900 -1,011 Descending FlightAware ADS-B
Mon 12:25:42 PM 38.4620 -107.3670 55° Northeast 457 526 35,200 -568 Descending FlightAware ADS-B
Mon 12:26:37 PM 38.5280 -107.2470 55° Northeast 464 534 35,000 -120 Descending FlightAware ADS-B
Mon 12:27:22 PM 38.5790 -107.1530 55° Northeast 463 533 35,000  Level FlightAware ADS-B
Mon 12:27:26 PM 38.5920 -107.1290 55° Northeast 464 534 35,000  Level FlightAware ADS-B
Mon 12:28:02 PM 38.6300 -107.0600 55° Northeast 464 534 35,000 -222 Level FlightAware ADS-B
Mon 12:28:47 PM 38.6840 -106.9590 56° Northeast 464 534 34,700 -675 Descending FlightAware ADS-B
Mon 12:29:22 PM 38.7280 -106.8770 55° Northeast 462 532 34,100 -1,040 Descending FlightAware ADS-B
Mon 12:30:02 PM 38.7780 -106.7840 55° Northeast 455 524 33,400 -1,091 Descending FlightAware ADS-B
Mon 12:30:17 PM 38.8000 -106.7440 55° Northeast 447 514 33,100 -1,043 Descending FlightAware ADS-B
Mon 12:30:48 PM 38.8353 -106.6780 56° Northeast 434 499 32,600 -968 Descending FlightAware ADS-B
Mon 12:31:19 PM 38.8706 -106.6130 55° Northeast 429 494 32,100 -1,082 Descending FlightAware ADS-B
Mon 12:31:49 PM 38.9042 -106.5500 56° Northeast 425 489 31,500 -984 Descending FlightAware ADS-B
Mon 12:32:20 PM 38.9377 -106.4870 56° Northeast 422 486 31,100 -931 Descending FlightAware ADS-B
Mon 12:32:47 PM 38.9674 -106.4290 57° Northeast 452 520 30,600 -1,017 Descending FlightAware ADS-B
Mon 12:33:19 PM 39.0010 -106.3540 60° Northeast 454 522 30,100 -968 Descending FlightAware ADS-B
Mon 12:33:49 PM 39.0329 -106.2820 60° Northeast 454 522 29,600 -1,452 Descending FlightAware ADS-B
Mon 12:34:21 PM 39.0668 -106.2080 59° Northeast 449 517 28,600 -1,875 Descending FlightAware ADS-B
Mon 12:34:53 PM 39.0994 -106.1370 59° Northeast 441 507 27,600 -2,032 Descending FlightAware ADS-B
Mon 12:35:23 PM 39.1301 -106.0700 59° Northeast 435 501 26,500 -2,200 Descending FlightAware ADS-B
Mon 12:35:53 PM 39.1611 -106.0020 60° Northeast 428 493 25,400 -2,066 Descending FlightAware ADS-B
Mon 12:36:24 PM 39.1915 -105.9340 60° Northeast 422 486 24,400 -1,967 Descending FlightAware ADS-B
Mon 12:36:54 PM 39.2206 -105.8700 60° Northeast 415 478 23,400 -1,967 Descending FlightAware ADS-B
Mon 12:37:25 PM 39.2502 -105.8050 60° Northeast 407 468 22,400 -1,935 Descending FlightAware ADS-B
Mon 12:37:56 PM 39.2789 -105.7410 60° Northeast 400 460 21,400 -1,967 Descending FlightAware ADS-B
Mon 12:38:26 PM 39.3070 -105.6790 60° Northeast 392 451 20,400 -1,869 Descending FlightAware ADS-B
Mon 12:38:57 PM 39.3343 -105.6180 60° Northeast 385 443 19,500 -1,574 Descending FlightAware ADS-B
Mon 12:39:27 PM 39.3607 -105.5590 60° Northeast 372 428 18,800 -1,200 Descending FlightAware ADS-B
Mon 12:39:57 PM 39.3864 -105.5020 60° Northeast 352 405 18,300 -833 Descending FlightAware ADS-B
Mon 12:40:03 PM 39.3907 -105.4920 61° Northeast 342 394 18,300 -545 Level FlightAware ADS-B
Mon 12:40:08 PM 39.3935 -105.4830 68° East 336 387 18,200 -1,333 Descending FlightAware ADS-B
Mon 12:40:12 PM 39.3954 -105.4750 73° East 333 383 18,100 -1,333 Descending FlightAware ADS-B
Mon 12:40:17 PM 39.3966 -105.4650 81° East 332 382 18,000 -1,200 Descending FlightAware ADS-B
Mon 12:40:47 PM 39.3988 -105.4060 87° East 328 377 17,400 -1,279 Descending FlightAware ADS-B
Mon 12:41:18 PM 39.4011 -105.3460 87° East 325 374 16,700 -1,279 Descending FlightAware ADS-B
Mon 12:41:48 PM 39.4036 -105.2890 87° East 315 362 16,100 -1,377 Descending FlightAware ADS-B
Mon 12:42:19 PM 39.4059 -105.2340 87° East 307 353 15,300 -1,452 Descending FlightAware ADS-B
Mon 12:42:50 PM 39.4086 -105.1760 87° East 301 346 14,600 -1,377 Descending FlightAware ADS-B
Mon 12:43:20 PM 39.4112 -105.1230 86° East 290 334 13,900 -1,048 Descending FlightAware ADS-B
Mon 12:43:53 PM 39.4137 -105.0680 87° East 276 318 13,500 -652 Descending FlightAware ADS-B
Mon 12:44:06 PM 39.4149 -105.0470 86° East 266 306 13,400 -522 Descending FlightAware ADS-B
Mon 12:44:16 PM 39.4183 -105.0310 75° East 263 303 13,300 -600 Descending FlightAware ADS-B
Mon 12:44:46 PM 39.4312 -104.9880 69° East 256 295 13,000 -387 Descending FlightAware ADS-B
Mon 12:45:18 PM 39.4449 -104.9440 68° East 252 290 12,900 -844 Descending FlightAware ADS-B
Mon 12:45:50 PM 39.4593 -104.8980 68° East 259 298 12,100 -1,594 Descending FlightAware ADS-B
Mon 12:46:22 PM 39.4734 -104.8530 68° East 253 291 11,200 -1,714 Descending FlightAware ADS-B
Mon 12:46:53 PM 39.4869 -104.8090 68° East 253 291 10,300 -1,660 Descending FlightAware ADS-B
Mon 12:47:09 PM 39.4938 -104.7870 68° East 258 297 9,900 -727 Descending FlightAware ADS-B
Mon 12:47:26 PM 39.5061 -104.7670 51° Northeast 252 290 9,900  Level FlightAware ADS-B
Mon 12:47:31 PM 39.5118 -104.7630 28° Northeast 252 290 9,900  Level FlightAware ADS-B
Mon 12:47:47 PM 39.5277 -104.7510 30° Northeast 249 287 9,900 -182 Level FlightAware ADS-B
Mon 12:48:04 PM 39.5449 -104.7380 30° Northeast 248 285 9,800 -727 Descending FlightAware ADS-B
Mon 12:48:20 PM 39.5606 -104.7270 28° Northeast 247 284 9,500 -968 Descending FlightAware ADS-B
Mon 12:48:35 PM 39.5759 -104.7160 29° Northeast 245 282 9,300 -706 Descending FlightAware ADS-B
Mon 12:48:54 PM 39.5936 -104.7030 30° Northeast 237 273 9,100 -686 Descending FlightAware ADS-B
Mon 12:49:10 PM 39.6085 -104.6920 30° Northeast 229 264 8,900 -364 Descending FlightAware ADS-B
Mon 12:49:27 PM 39.6241 -104.6800 31° Northeast 221 254 8,900 -146 Level FlightAware ADS-B
Mon 12:49:51 PM 39.6453 -104.6660 27° Northeast 219 252 8,800 -353 Descending FlightAware ADS-B
Mon 12:50:01 PM 39.6555 -104.6640 North 220 253 8,700 -1,000 Descending FlightAware ADS-B
Mon 12:50:09 PM 39.6642 -104.6630 North 220 253 8,500 -1,143 Descending FlightAware ADS-B
Mon 12:50:22 PM 39.6772 -104.6620 North 222 255 8,300 -1,241 Descending FlightAware ADS-B
Mon 12:50:38 PM 39.6932 -104.6620 360° North 222 255 7,900 -1,273 Descending FlightAware ADS-B
Mon 12:50:55 PM 39.7112 -104.6620 360° North 221 254 7,600 -1,034 Descending FlightAware ADS-B
Mon 12:51:07 PM 39.7228 -104.6620 360° North 218 251 7,400 -1,333 Descending FlightAware ADS-B
Mon 12:51:22 PM 39.7386 -104.6620 360° North 217 250 7,000 -1,161 Descending FlightAware ADS-B
Mon 12:51:38 PM 39.7536 -104.6610 North 201 231 6,800 -938 Descending FlightAware ADS-B
Mon 12:51:54 PM 39.7677 -104.6610 360° North 189 217 6,500 -968 Descending FlightAware ADS-B
Mon 12:52:09 PM 39.7803 -104.6610 360° North 177 204 6,300 -968 Descending FlightAware ADS-B
Mon 12:52:25 PM 39.7921 -104.6610 360° North 152 175 6,000 -1,091 Descending FlightAware ADS-B
Mon 12:52:31 PM 39.7966 -104.6610 360° North 149 171 5,900 -750 Descending FlightAware ADS-B
Mon 12:52:41 PM 39.8031 -104.6610 360° North 144 166 5,800 -720 Descending FlightAware ADS-B
Mon 12:52:56 PM 39.8134 -104.6610 360° North 145 167 5,600 -643 Descending FlightAware ADS-B
Mon 12:53:09 PM 39.8218 -104.6610 360° North 142 163 5,500 -462 Descending FlightAware ADS-B

Login

Don't have an account? Register now (free) for customized features, flight alerts, and more!